createdAt,value
2023-05-01T00:01:38.416Z,5.36
2023-05-01T00:04:06.575Z,6.19
2023-05-01T00:06:34.604Z,7.24
2023-05-01T00:09:02.778Z,7.80
2023-05-01T00:11:30.665Z,7.93
2023-05-01T00:13:58.516Z,7.41
2023-05-01T00:16:26.436Z,6.75
2023-05-01T00:18:55.268Z,6.24
2023-05-01T00:21:23.103Z,5.84
2023-05-01T00:23:50.888Z,5.52
2023-05-01T00:26:18.776Z,5.39
2023-05-01T00:28:46.604Z,5.88
2023-05-01T00:31:14.414Z,6.50
2023-05-01T00:33:42.345Z,7.09
2023-05-01T00:36:10.736Z,7.63
2023-05-01T00:38:38.532Z,8.04
2023-05-01T00:41:06.380Z,8.19
2023-05-01T00:43:34.280Z,7.56
2023-05-01T00:46:02.250Z,6.84
2023-05-01T00:48:31.109Z,6.29
2023-05-01T00:51:01.018Z,5.86
2023-05-01T00:53:29.506Z,5.68
2023-05-01T00:55:58.720Z,6.30
2023-05-01T00:58:26.914Z,6.96
2023-05-01T01:00:55.927Z,7.45
2023-05-01T01:03:23.873Z,7.84
2023-05-01T01:06:15.554Z,7.70
2023-05-01T01:09:08.113Z,6.89
2023-05-01T01:11:57.660Z,6.19
2023-05-01T01:14:45.671Z,5.75
2023-05-01T01:17:45.903Z,5.68
2023-05-01T01:20:42.003Z,6.57
2023-05-01T01:23:51.554Z,7.40
2023-05-01T01:26:51.735Z,7.92
2023-05-01T01:29:42.036Z,8.27
2023-05-01T01:32:56.347Z,8.30
2023-05-01T01:35:27.814Z,7.31
2023-05-01T01:38:15.354Z,6.56
2023-05-01T01:41:10.001Z,5.89
2023-05-01T01:43:54.088Z,5.35
2023-05-01T01:46:24.598Z,5.40
2023-05-01T01:48:55.822Z,6.07
2023-05-01T01:51:27.124Z,6.61
2023-05-01T01:54:00.499Z,7.00
2023-05-01T01:56:33.124Z,7.23
2023-05-01T01:59:04.238Z,7.42
2023-05-01T02:01:35.012Z,7.58
2023-05-01T02:04:05.680Z,7.74
2023-05-01T02:06:36.566Z,7.68
2023-05-01T02:09:07.732Z,6.94
2023-05-01T02:11:38.096Z,6.17
2023-05-01T02:14:08.946Z,5.58
2023-05-01T02:16:37.887Z,5.26
2023-05-01T02:19:06.089Z,5.69
2023-05-01T02:21:37.424Z,6.27
2023-05-01T02:24:07.286Z,6.66
2023-05-01T02:26:43.901Z,7.05
2023-05-01T02:29:11.866Z,7.28
2023-05-01T02:31:39.786Z,7.40
2023-05-01T02:34:07.614Z,7.55
2023-05-01T02:36:35.460Z,7.72
2023-05-01T02:39:03.705Z,7.79
2023-05-01T02:41:35.267Z,7.85
2023-05-01T02:44:07.842Z,7.45
2023-05-01T02:46:38.903Z,6.59
2023-05-01T02:49:07.323Z,5.88
2023-05-01T02:51:36.780Z,5.50
2023-05-01T02:54:05.144Z,5.89
2023-05-01T02:56:33.065Z,6.46
2023-05-01T02:59:00.856Z,6.86
2023-05-01T03:01:28.808Z,7.11
2023-05-01T03:03:56.767Z,7.20
2023-05-01T03:06:24.718Z,7.29
2023-05-01T03:08:52.574Z,7.34
2023-05-01T03:11:21.346Z,7.41
2023-05-01T03:13:49.428Z,7.48
2023-05-01T03:16:17.280Z,7.55
2023-05-01T03:18:45.083Z,7.69
2023-05-01T03:21:13.017Z,7.61
2023-05-01T03:23:40.856Z,6.87
2023-05-01T03:26:08.672Z,6.12
2023-05-01T03:28:36.508Z,5.55
2023-05-01T03:31:04.703Z,5.30
2023-05-01T03:33:32.556Z,5.86
2023-05-01T03:36:05.793Z,6.59
2023-05-01T03:38:33.784Z,7.22
2023-05-01T03:41:01.556Z,7.69
2023-05-01T03:43:29.372Z,8.06
2023-05-01T03:45:57.693Z,8.37
2023-05-01T03:48:25.754Z,8.49
2023-05-01T03:50:53.557Z,7.84
2023-05-01T03:53:21.376Z,7.12
2023-05-01T03:55:49.218Z,6.70
2023-05-01T03:58:17.294Z,6.71
2023-05-01T04:00:45.125Z,7.62
2023-05-01T04:03:13.222Z,8.85
2023-05-01T04:05:41.018Z,9.83
2023-05-01T04:08:09.128Z,10.01
2023-05-01T04:10:36.992Z,10.02
2023-05-01T04:13:05.232Z,10.13
2023-05-01T04:15:32.981Z,10.38
2023-05-01T04:18:00.939Z,10.76
2023-05-01T04:20:28.754Z,11.19
2023-05-01T04:22:56.646Z,11.62
2023-05-01T04:25:24.462Z,12.05
2023-05-01T04:27:52.313Z,12.51
2023-05-01T04:30:20.239Z,12.83
2023-05-01T04:32:48.025Z,12.78
2023-05-01T04:35:16.446Z,12.37
2023-05-01T04:37:44.306Z,11.89
2023-05-01T04:40:12.736Z,11.42
2023-05-01T04:42:40.728Z,10.99
2023-05-01T04:45:09.225Z,10.76
2023-05-01T04:47:37.107Z,10.98
2023-05-01T04:50:06.007Z,11.62
2023-05-01T04:52:33.919Z,12.43
2023-05-01T04:55:02.586Z,13.25
2023-05-01T04:57:30.435Z,14.01
2023-05-01T04:59:58.704Z,14.77
2023-05-01T05:02:26.943Z,15.46
2023-05-01T05:04:55.042Z,16.07
2023-05-01T05:07:23.492Z,16.57
2023-05-01T05:09:51.591Z,16.99
2023-05-01T05:12:19.499Z,17.36
2023-05-01T05:14:48.148Z,17.65
2023-05-01T05:17:16.018Z,17.87
2023-05-01T05:19:43.826Z,18.00
2023-05-01T05:22:12.631Z,18.14
2023-05-01T05:24:40.540Z,18.27
2023-05-01T05:27:08.588Z,18.44
2023-05-01T05:29:36.615Z,18.61
2023-05-01T05:32:04.804Z,18.83
2023-05-01T05:34:33.377Z,19.22
2023-05-01T05:37:02.026Z,19.44
2023-05-01T05:39:30.701Z,18.64
2023-05-01T05:41:59.081Z,17.17
2023-05-01T05:44:26.948Z,15.80
2023-05-01T05:46:54.793Z,14.64
2023-05-01T05:49:22.798Z,13.74
2023-05-01T05:51:50.590Z,12.98
2023-05-01T05:54:18.375Z,12.37
2023-05-01T05:56:46.362Z,11.91
2023-05-01T05:59:15.931Z,11.62
2023-05-01T06:01:45.032Z,11.38
2023-05-01T06:04:15.126Z,11.13
2023-05-01T06:06:43.285Z,10.89
2023-05-01T06:09:13.036Z,10.73
2023-05-01T06:11:40.942Z,10.63
2023-05-01T06:14:09.798Z,10.54
2023-05-01T06:16:38.689Z,10.49
2023-05-01T06:19:08.041Z,10.46
2023-05-01T06:21:36.353Z,10.43
2023-05-01T06:24:04.739Z,10.45
2023-05-01T06:26:33.110Z,10.46
2023-05-01T06:29:01.116Z,10.48
2023-05-01T06:31:29.166Z,10.50
2023-05-01T06:33:57.073Z,10.55
2023-05-01T06:36:24.798Z,10.59
2023-05-01T06:38:52.607Z,10.65
2023-05-01T06:41:22.242Z,10.73
2023-05-01T06:43:50.239Z,10.81
2023-05-01T06:46:18.171Z,10.90
2023-05-01T06:48:46.035Z,11.06
2023-05-01T06:51:16.077Z,11.20
2023-05-01T06:53:43.843Z,11.23
2023-05-01T06:56:11.817Z,11.14
2023-05-01T06:58:39.675Z,11.11
2023-05-01T07:01:07.669Z,11.13
2023-05-01T07:03:35.834Z,11.15
2023-05-01T07:06:04.147Z,11.21
2023-05-01T07:08:32.292Z,11.32
2023-05-01T07:11:00.306Z,11.40
2023-05-01T07:13:28.434Z,11.47
2023-05-01T07:15:56.283Z,11.54
2023-05-01T07:18:24.183Z,11.58
2023-05-01T07:20:53.011Z,11.67
2023-05-01T07:23:20.935Z,11.72
2023-05-01T07:25:48.798Z,11.79
2023-05-01T07:28:18.197Z,11.85
2023-05-01T07:30:46.154Z,11.90
2023-05-01T07:33:14.235Z,11.97
2023-05-01T07:35:43.227Z,12.01
2023-05-01T07:38:11.087Z,12.11
2023-05-01T07:40:38.922Z,12.20
2023-05-01T07:43:07.429Z,12.30
2023-05-01T07:45:35.337Z,12.46
2023-05-01T07:48:03.387Z,12.55
2023-05-01T07:50:31.672Z,12.50
2023-05-01T07:52:59.872Z,12.50
2023-05-01T07:55:27.738Z,12.45
2023-05-01T07:57:56.235Z,12.50
2023-05-01T08:00:24.384Z,12.59
2023-05-01T08:02:52.613Z,12.68
2023-05-01T08:05:20.550Z,12.78
2023-05-01T08:07:48.774Z,12.87
2023-05-01T08:10:16.749Z,12.91
2023-05-01T08:12:44.712Z,12.90
2023-05-01T08:15:12.488Z,12.91
2023-05-01T08:17:40.291Z,12.99
2023-05-01T08:20:09.278Z,13.01
2023-05-01T08:22:37.109Z,12.97
2023-05-01T08:25:06.215Z,12.95
2023-05-01T08:27:34.242Z,13.01
2023-05-01T08:30:01.993Z,13.09
2023-05-01T08:32:29.926Z,13.10
2023-05-01T08:34:58.021Z,13.18
2023-05-01T08:37:25.962Z,13.30
2023-05-01T08:39:54.397Z,13.48
2023-05-01T08:42:24.243Z,13.59
2023-05-01T08:44:59.541Z,13.58
2023-05-01T08:47:30.650Z,13.71
2023-05-01T08:50:00.138Z,13.81
2023-05-01T08:52:30.858Z,13.92
2023-05-01T08:55:01.702Z,14.06
2023-05-01T08:57:33.452Z,14.05
2023-05-01T09:00:04.689Z,13.99
2023-05-01T09:02:35.412Z,14.08
2023-05-01T09:05:09.312Z,14.20
2023-05-01T09:07:39.081Z,14.35
2023-05-01T09:10:07.828Z,14.42
2023-05-01T09:12:36.735Z,14.54
2023-05-01T09:15:07.131Z,14.53
2023-05-01T09:17:37.060Z,14.52
2023-05-01T09:20:06.220Z,14.57
2023-05-01T09:22:35.528Z,14.74
2023-05-01T09:25:04.270Z,14.93
2023-05-01T09:27:38.129Z,15.15
2023-05-01T09:30:07.734Z,15.25
2023-05-01T09:32:36.144Z,15.37
2023-05-01T09:35:15.461Z,15.51
2023-05-01T09:37:50.104Z,15.50
2023-05-01T09:40:18.174Z,15.56
2023-05-01T09:42:52.903Z,15.73
2023-05-01T09:45:21.188Z,15.86
2023-05-01T09:47:50.200Z,15.91
2023-05-01T09:50:35.819Z,16.08
2023-05-01T09:53:06.666Z,16.27
2023-05-01T09:55:35.515Z,16.29
2023-05-01T09:58:03.822Z,16.10
2023-05-01T10:00:48.169Z,15.91
2023-05-01T10:03:16.378Z,15.82
2023-05-01T10:05:44.936Z,15.86
2023-05-01T10:08:16.693Z,15.81
2023-05-01T10:10:44.610Z,15.91
2023-05-01T10:13:14.615Z,16.07
2023-05-01T10:15:44.320Z,16.13
2023-05-01T10:18:14.660Z,16.15
2023-05-01T10:20:42.862Z,16.05
2023-05-01T10:23:11.723Z,16.09
2023-05-01T10:25:42.496Z,16.22
2023-05-01T10:28:12.635Z,16.37
2023-05-01T10:30:42.645Z,16.42
2023-05-01T10:33:14.231Z,16.47
2023-05-01T10:35:50.402Z,16.54
2023-05-01T10:38:26.907Z,16.65
2023-05-01T10:40:54.903Z,16.86
2023-05-01T10:43:32.736Z,16.88
2023-05-01T10:46:21.748Z,16.97
2023-05-01T10:48:49.773Z,17.10
2023-05-01T10:51:28.401Z,17.25
2023-05-01T10:54:14.777Z,17.44
2023-05-01T10:56:43.740Z,17.64
2023-05-01T10:59:13.091Z,17.72
2023-05-01T11:01:45.221Z,17.66
2023-05-01T11:04:19.359Z,17.63
2023-05-01T11:07:05.632Z,17.51
2023-05-01T11:09:49.569Z,17.45
2023-05-01T11:12:46.478Z,17.51
2023-05-01T11:15:32.208Z,17.57
2023-05-01T11:18:02.416Z,17.65
2023-05-01T11:20:36.676Z,17.74
2023-05-01T11:23:04.562Z,17.80
2023-05-01T11:25:33.223Z,17.92
2023-05-01T11:28:03.862Z,18.08
2023-05-01T11:30:39.732Z,18.13
2023-05-01T11:33:10.521Z,18.12
2023-05-01T11:35:39.425Z,18.13
2023-05-01T11:38:18.847Z,18.18
2023-05-01T11:40:56.303Z,18.28
2023-05-01T11:43:24.230Z,18.43
2023-05-01T11:46:02.364Z,18.53
2023-05-01T11:48:31.750Z,18.59
2023-05-01T11:50:59.727Z,18.68
2023-05-01T11:53:27.758Z,18.62
2023-05-01T11:55:56.020Z,18.61
2023-05-01T11:58:34.253Z,18.68
2023-05-01T12:01:03.375Z,18.47
2023-05-01T12:03:42.793Z,18.31
2023-05-01T12:06:13.732Z,18.37
2023-05-01T12:08:51.292Z,18.42
2023-05-01T12:11:21.365Z,18.45
2023-05-01T12:13:50.430Z,18.50
2023-05-01T12:16:18.691Z,18.66
2023-05-01T12:18:50.442Z,18.74
2023-05-01T12:21:18.289Z,18.75
2023-05-01T12:23:46.686Z,18.73
2023-05-01T12:26:19.427Z,18.74
2023-05-01T12:29:11.426Z,18.82
2023-05-01T12:31:50.096Z,18.84
2023-05-01T12:34:18.524Z,18.80
2023-05-01T12:36:54.777Z,18.80
2023-05-01T12:39:23.746Z,18.84
2023-05-01T12:41:51.904Z,18.81
2023-05-01T12:44:25.153Z,18.78
2023-05-01T12:47:07.392Z,18.81
2023-05-01T12:49:37.424Z,18.91
2023-05-01T12:52:07.998Z,18.93
2023-05-01T12:54:39.148Z,18.97
2023-05-01T12:57:16.709Z,18.99
2023-05-01T12:59:50.792Z,19.02
2023-05-01T13:02:18.825Z,19.02
2023-05-01T13:04:49.485Z,18.99
2023-05-01T13:07:26.072Z,19.02
2023-05-01T13:09:57.845Z,19.06
2023-05-01T13:12:27.926Z,19.07
2023-05-01T13:14:59.423Z,19.01
2023-05-01T13:17:32.657Z,18.97
2023-05-01T13:20:08.121Z,18.96
2023-05-01T13:22:39.088Z,18.99
2023-05-01T13:25:25.990Z,19.04
2023-05-01T13:27:57.312Z,19.07
2023-05-01T13:30:34.164Z,18.95
2023-05-01T13:33:05.271Z,18.77
2023-05-01T13:35:33.427Z,18.67
2023-05-01T13:38:03.851Z,18.66
2023-05-01T13:40:34.370Z,18.70
2023-05-01T13:43:03.077Z,18.77
2023-05-01T13:45:31.327Z,18.84
2023-05-01T13:47:59.319Z,18.89
2023-05-01T13:50:27.679Z,18.95
2023-05-01T13:52:56.903Z,18.96
2023-05-01T13:55:25.799Z,18.93
2023-05-01T13:57:54.024Z,18.94
2023-05-01T14:00:23.028Z,18.96
2023-05-01T14:02:53.818Z,19.02
2023-05-01T14:05:30.794Z,19.07
2023-05-01T14:08:01.537Z,19.09
2023-05-01T14:10:30.120Z,19.04
2023-05-01T14:12:59.474Z,19.03
2023-05-01T14:15:29.415Z,19.04
2023-05-01T14:17:59.116Z,19.07
2023-05-01T14:20:27.422Z,19.07
2023-05-01T14:22:55.515Z,19.04
2023-05-01T14:25:34.154Z,18.96
2023-05-01T14:28:10.105Z,18.98
2023-05-01T14:30:40.517Z,19.05
2023-05-01T14:33:13.514Z,19.11
2023-05-01T14:35:51.029Z,19.14
2023-05-01T14:38:22.381Z,19.09
2023-05-01T14:40:50.341Z,19.08
2023-05-01T14:43:22.454Z,19.05
2023-05-01T14:45:51.374Z,19.04
2023-05-01T14:48:25.796Z,19.08
2023-05-01T14:50:55.208Z,19.05
2023-05-01T14:53:23.476Z,19.03
2023-05-01T14:55:52.345Z,19.10
2023-05-01T14:58:20.534Z,19.17
2023-05-01T15:00:48.498Z,19.21
2023-05-01T15:03:16.949Z,19.18
2023-05-01T15:05:46.258Z,19.16
2023-05-01T15:08:15.428Z,19.17
2023-05-01T15:10:44.225Z,19.10
2023-05-01T15:13:12.752Z,19.04
2023-05-01T15:15:40.772Z,19.00
2023-05-01T15:18:09.082Z,18.96
2023-05-01T15:20:38.589Z,18.88
2023-05-01T15:23:07.107Z,18.85
2023-05-01T15:25:35.114Z,18.85
2023-05-01T15:28:03.801Z,18.85
2023-05-01T15:30:31.888Z,18.82
2023-05-01T15:32:59.772Z,18.80
2023-05-01T15:35:27.802Z,18.80
2023-05-01T15:37:57.211Z,18.77
2023-05-01T15:40:25.239Z,18.67
2023-05-01T15:42:53.765Z,18.59
2023-05-01T15:45:22.317Z,18.57
2023-05-01T15:47:51.170Z,18.58
2023-05-01T15:50:20.324Z,18.57
2023-05-01T15:52:50.920Z,18.57
2023-05-01T15:55:19.978Z,18.54
2023-05-01T15:57:48.930Z,18.49
2023-05-01T16:00:17.882Z,18.45
2023-05-01T16:02:45.867Z,18.39
2023-05-01T16:05:27.867Z,18.30
2023-05-01T16:08:07.796Z,18.22
2023-05-01T16:10:38.800Z,18.12
2023-05-01T16:13:07.549Z,18.09
2023-05-01T16:15:38.108Z,18.07
2023-05-01T16:18:06.964Z,18.11
2023-05-01T16:20:42.349Z,18.19
2023-05-01T16:23:12.475Z,18.30
2023-05-01T16:25:43.538Z,18.46
2023-05-01T16:28:12.917Z,18.74
2023-05-01T16:30:45.246Z,18.78
2023-05-01T16:33:20.160Z,18.73
2023-05-01T16:35:49.701Z,18.72
2023-05-01T16:38:19.291Z,18.62
2023-05-01T16:40:48.402Z,18.48
2023-05-01T16:43:16.885Z,18.32
2023-05-01T16:45:47.068Z,18.15
2023-05-01T16:48:24.403Z,17.99
2023-05-01T16:50:53.232Z,17.81
2023-05-01T16:53:22.774Z,17.64
2023-05-01T16:55:52.510Z,17.47
2023-05-01T16:58:20.786Z,17.30
2023-05-01T17:00:48.967Z,17.14
2023-05-01T17:03:17.421Z,17.01
2023-05-01T17:05:45.748Z,16.91
2023-05-01T17:08:14.892Z,16.82
2023-05-01T17:10:45.075Z,16.73
2023-05-01T17:13:16.125Z,16.64
2023-05-01T17:15:45.655Z,16.53
2023-05-01T17:18:13.607Z,16.43
2023-05-01T17:20:41.806Z,16.31
2023-05-01T17:23:10.249Z,16.19
2023-05-01T17:25:38.660Z,16.10
2023-05-01T17:28:06.657Z,16.01
2023-05-01T17:30:34.495Z,15.93
2023-05-01T17:33:02.479Z,15.84
2023-05-01T17:35:30.455Z,15.74
2023-05-01T17:37:58.357Z,15.66
2023-05-01T17:40:27.542Z,15.57
2023-05-01T17:42:55.524Z,15.49
2023-05-01T17:45:23.816Z,15.43
2023-05-01T17:47:52.905Z,15.36
2023-05-01T17:50:20.937Z,15.28
2023-05-01T17:52:48.725Z,15.21
2023-05-01T17:55:18.177Z,15.13
2023-05-01T17:57:47.220Z,15.05
2023-05-01T18:00:16.511Z,14.98
2023-05-01T18:02:46.881Z,14.91
2023-05-01T18:05:15.130Z,14.85
2023-05-01T18:07:44.156Z,14.78
2023-05-01T18:10:12.190Z,14.72
2023-05-01T18:12:40.194Z,14.65
2023-05-01T18:15:09.723Z,14.58
2023-05-01T18:17:37.749Z,14.50
2023-05-01T18:20:11.366Z,14.42
2023-05-01T18:22:54.149Z,14.32
2023-05-01T18:25:41.495Z,14.21
2023-05-01T18:28:09.368Z,14.10
2023-05-01T18:30:49.653Z,14.03
2023-05-01T18:33:31.369Z,13.95
2023-05-01T18:36:01.390Z,13.87
2023-05-01T18:38:30.791Z,13.81
2023-05-01T18:41:00.348Z,13.74
2023-05-01T18:43:31.870Z,13.67
2023-05-01T18:46:03.264Z,13.61
2023-05-01T18:48:32.599Z,13.55
2023-05-01T18:51:09.066Z,13.47
2023-05-01T18:53:40.467Z,13.41
2023-05-01T18:56:09.632Z,13.35
2023-05-01T18:58:37.587Z,13.29
2023-05-01T19:01:10.152Z,13.24
2023-05-01T19:03:43.814Z,13.18
2023-05-01T19:06:15.227Z,13.12
2023-05-01T19:08:44.794Z,13.06
2023-05-01T19:11:13.388Z,13.01
2023-05-01T19:13:41.749Z,12.96
2023-05-01T19:16:25.198Z,12.91
2023-05-01T19:19:06.197Z,12.85
2023-05-01T19:22:05.164Z,12.80
2023-05-01T19:24:55.002Z,12.75
2023-05-01T19:27:32.307Z,12.69
2023-05-01T19:30:09.476Z,12.64
2023-05-01T19:32:44.059Z,12.59
2023-05-01T19:35:14.386Z,12.50
2023-05-01T19:37:56.242Z,12.42
2023-05-01T19:40:33.705Z,12.34
2023-05-01T19:43:02.095Z,12.29
2023-05-01T19:45:36.754Z,12.23
2023-05-01T19:48:10.213Z,12.18
2023-05-01T19:50:52.780Z,12.12
2023-05-01T19:53:23.530Z,12.07
2023-05-01T19:55:55.166Z,12.02
2023-05-01T19:58:23.077Z,11.99
2023-05-01T20:00:51.157Z,11.97
2023-05-01T20:03:21.332Z,11.95
2023-05-01T20:05:50.713Z,11.92
2023-05-01T20:08:18.557Z,11.90
2023-05-01T20:10:46.472Z,11.86
2023-05-01T20:13:14.331Z,11.84
2023-05-01T20:15:43.463Z,11.81
2023-05-01T20:18:13.346Z,11.78
2023-05-01T20:20:41.758Z,11.74
2023-05-01T20:23:20.420Z,11.69
2023-05-01T20:25:51.822Z,11.62
2023-05-01T20:28:20.885Z,11.56
2023-05-01T20:30:49.096Z,11.51
2023-05-01T20:33:17.895Z,11.45
2023-05-01T20:35:47.628Z,11.40
2023-05-01T20:38:15.453Z,11.35
2023-05-01T20:40:43.427Z,11.31
2023-05-01T20:43:11.498Z,11.27
2023-05-01T20:45:39.845Z,11.24
2023-05-01T20:48:08.082Z,11.20
2023-05-01T20:50:36.074Z,11.18
2023-05-01T20:53:04.135Z,11.15
2023-05-01T20:55:32.067Z,11.13
2023-05-01T20:57:59.971Z,11.10
2023-05-01T21:00:28.035Z,11.07
2023-05-01T21:02:58.297Z,11.06
2023-05-01T21:05:26.372Z,11.02
2023-05-01T21:07:54.313Z,10.99
2023-05-01T21:10:22.583Z,10.96
2023-05-01T21:12:51.288Z,10.93
2023-05-01T21:15:19.352Z,10.90
2023-05-01T21:17:47.476Z,10.86
2023-05-01T21:20:17.669Z,10.83
2023-05-01T21:22:46.380Z,10.79
2023-05-01T21:25:16.573Z,10.75
2023-05-01T21:27:44.532Z,10.72
2023-05-01T21:30:18.034Z,10.69
2023-05-01T21:32:45.897Z,10.65
2023-05-01T21:35:16.743Z,10.61
2023-05-01T21:37:45.985Z,10.55
2023-05-01T21:40:15.103Z,10.49
2023-05-01T21:42:43.064Z,10.43
2023-05-01T21:45:13.990Z,10.36
2023-05-01T21:47:45.602Z,10.31
2023-05-01T21:50:19.730Z,10.26
2023-05-01T21:52:49.976Z,10.22
2023-05-01T21:55:20.604Z,10.18
2023-05-01T21:57:53.287Z,10.15
2023-05-01T22:00:22.081Z,10.14
2023-05-01T22:02:52.320Z,10.11
2023-05-01T22:05:22.933Z,10.10
2023-05-01T22:07:54.360Z,10.08
2023-05-01T22:10:22.173Z,10.06
2023-05-01T22:12:50.353Z,10.04
2023-05-01T22:15:18.271Z,10.01
2023-05-01T22:17:46.551Z,9.98
2023-05-01T22:20:14.449Z,9.94
2023-05-01T22:22:45.836Z,9.90
2023-05-01T22:25:13.703Z,9.85
2023-05-01T22:27:41.995Z,9.80
2023-05-01T22:30:11.365Z,9.76
2023-05-01T22:32:39.187Z,9.71
2023-05-01T22:35:09.046Z,9.65
2023-05-01T22:37:37.009Z,9.60
2023-05-01T22:40:06.227Z,9.57
2023-05-01T22:42:34.168Z,9.53
2023-05-01T22:45:02.002Z,9.49
2023-05-01T22:47:30.111Z,9.46
2023-05-01T22:49:58.202Z,9.42
2023-05-01T22:52:26.317Z,9.53
2023-05-01T22:54:54.120Z,10.35
2023-05-01T22:57:22.210Z,11.29
2023-05-01T22:59:50.101Z,11.90
2023-05-01T23:02:19.099Z,11.66
2023-05-01T23:04:47.168Z,11.21
2023-05-01T23:07:15.433Z,10.90
2023-05-01T23:09:43.159Z,10.69
2023-05-01T23:12:23.342Z,10.53
2023-05-01T23:14:51.893Z,10.39
2023-05-01T23:17:19.901Z,10.28
2023-05-01T23:19:48.100Z,10.19
2023-05-01T23:22:15.923Z,10.12
2023-05-01T23:24:50.630Z,10.04
2023-05-01T23:27:20.107Z,9.97
2023-05-01T23:29:55.157Z,9.91
2023-05-01T23:32:32.001Z,9.85
2023-05-01T23:35:14.349Z,9.79
2023-05-01T23:37:43.017Z,9.75
2023-05-01T23:40:11.361Z,9.72
2023-05-01T23:42:40.027Z,9.69
2023-05-01T23:45:08.525Z,9.66
2023-05-01T23:47:38.575Z,9.63
2023-05-01T23:50:07.656Z,9.60
2023-05-01T23:52:35.848Z,9.57
2023-05-01T23:55:03.944Z,9.54
2023-05-01T23:57:31.779Z,9.49
2023-05-01T23:59:59.824Z,9.45
